sensor_id;sensor_type;location;lat;lon;timestamp;P1;durP1;ratioP1;P2;durP2;ratioP2
9461;SDS011;4769;42.660;23.262;2024-03-02T00:05:22;25.87;;;18.07;;
9461;SDS011;4769;42.660;23.262;2024-03-02T00:08:06;26.13;;;19.07;;
9461;SDS011;4769;42.660;23.262;2024-03-02T00:13:39;26.37;;;19.37;;
9461;SDS011;4769;42.660;23.262;2024-03-02T00:19:21;24.90;;;18.30;;
9461;SDS011;4769;42.660;23.262;2024-03-02T00:21:46;27.00;;;19.70;;
9461;SDS011;4769;42.660;23.262;2024-03-02T00:24:21;24.40;;;18.30;;
9461;SDS011;4769;42.660;23.262;2024-03-02T00:27:07;23.87;;;18.43;;
9461;SDS011;4769;42.660;23.262;2024-03-02T00:29:32;25.50;;;18.47;;
9461;SDS011;4769;42.660;23.262;2024-03-02T00:32:07;24.80;;;18.97;;
9461;SDS011;4769;42.660;23.262;2024-03-02T00:34:48;26.37;;;18.53;;
9461;SDS011;4769;42.660;23.262;2024-03-02T00:37:39;26.60;;;19.93;;
9461;SDS011;4769;42.660;23.262;2024-03-02T00:40:04;28.87;;;19.47;;
9461;SDS011;4769;42.660;23.262;2024-03-02T00:42:38;32.77;;;20.83;;
9461;SDS011;4769;42.660;23.262;2024-03-02T00:45:24;30.40;;;20.87;;
9461;SDS011;4769;42.660;23.262;2024-03-02T00:47:59;26.90;;;20.23;;
9461;SDS011;4769;42.660;23.262;2024-03-02T00:50:56;26.83;;;19.73;;
9461;SDS011;4769;42.660;23.262;2024-03-02T00:53:37;27.13;;;20.30;;
9461;SDS011;4769;42.660;23.262;2024-03-02T00:56:08;26.40;;;19.73;;
9461;SDS011;4769;42.660;23.262;2024-03-02T00:58:48;28.20;;;21.13;;
9461;SDS011;4769;42.660;23.262;2024-03-02T01:01:13;29.60;;;21.10;;
9461;SDS011;4769;42.660;23.262;2024-03-02T01:03:41;30.63;;;22.33;;
9461;SDS011;4769;42.660;23.262;2024-03-02T01:06:19;30.93;;;21.20;;
9461;SDS011;4769;42.660;23.262;2024-03-02T01:08:55;28.73;;;20.57;;
9461;SDS011;4769;42.660;23.262;2024-03-02T01:11:24;30.43;;;21.30;;
9461;SDS011;4769;42.660;23.262;2024-03-02T01:14:21;30.23;;;20.97;;
9461;SDS011;4769;42.660;23.262;2024-03-02T01:16:52;29.97;;;22.50;;
9461;SDS011;4769;42.660;23.262;2024-03-02T01:19:41;29.23;;;21.57;;
9461;SDS011;4769;42.660;23.262;2024-03-02T01:22:13;32.83;;;22.00;;
9461;SDS011;4769;42.660;23.262;2024-03-02T01:24:38;29.43;;;21.97;;
9461;SDS011;4769;42.660;23.262;2024-03-02T01:27:03;31.73;;;22.43;;
9461;SDS011;4769;42.660;23.262;2024-03-02T01:29:57;28.07;;;20.23;;
9461;SDS011;4769;42.660;23.262;2024-03-02T01:32:26;30.30;;;20.77;;
9461;SDS011;4769;42.660;23.262;2024-03-02T01:38:03;31.63;;;21.73;;
9461;SDS011;4769;42.660;23.262;2024-03-02T01:40:54;28.00;;;19.97;;
9461;SDS011;4769;42.660;23.262;2024-03-02T01:43:25;33.60;;;22.17;;
9461;SDS011;4769;42.660;23.262;2024-03-02T01:46:12;31.30;;;22.17;;
9461;SDS011;4769;42.660;23.262;2024-03-02T01:48:39;28.33;;;21.20;;
9461;SDS011;4769;42.660;23.262;2024-03-02T01:51:05;30.00;;;21.20;;
9461;SDS011;4769;42.660;23.262;2024-03-02T01:53:40;26.63;;;19.40;;
9461;SDS011;4769;42.660;23.262;2024-03-02T01:56:05;29.63;;;21.13;;
9461;SDS011;4769;42.660;23.262;2024-03-02T01:58:36;29.40;;;21.23;;
9461;SDS011;4769;42.660;23.262;2024-03-02T02:01:14;28.70;;;20.30;;
9461;SDS011;4769;42.660;23.262;2024-03-02T02:03:39;28.00;;;21.20;;
9461;SDS011;4769;42.660;23.262;2024-03-02T02:06:08;29.77;;;21.30;;
9461;SDS011;4769;42.660;23.262;2024-03-02T02:08:49;29.57;;;21.37;;
9461;SDS011;4769;42.660;23.262;2024-03-02T02:11:20;29.10;;;20.77;;
9461;SDS011;4769;42.660;23.262;2024-03-02T02:13:57;29.63;;;20.97;;
9461;SDS011;4769;42.660;23.262;2024-03-02T02:16:23;29.23;;;19.77;;
9461;SDS011;4769;42.660;23.262;2024-03-02T02:18:48;29.73;;;21.27;;
9461;SDS011;4769;42.660;23.262;2024-03-02T02:21:13;29.33;;;19.80;;
9461;SDS011;4769;42.660;23.262;2024-03-02T02:23:50;31.33;;;21.90;;
9461;SDS011;4769;42.660;23.262;2024-03-02T02:26:18;31.43;;;20.87;;
9461;SDS011;4769;42.660;23.262;2024-03-02T02:28:44;27.60;;;21.20;;
9461;SDS011;4769;42.660;23.262;2024-03-02T02:31:17;29.40;;;21.33;;
9461;SDS011;4769;42.660;23.262;2024-03-02T02:33:46;28.23;;;21.63;;
9461;SDS011;4769;42.660;23.262;2024-03-02T02:36:11;26.30;;;20.50;;
9461;SDS011;4769;42.660;23.262;2024-03-02T02:38:44;27.83;;;20.07;;
9461;SDS011;4769;42.660;23.262;2024-03-02T02:41:32;28.83;;;20.27;;
9461;SDS011;4769;42.660;23.262;2024-03-02T02:44:01;32.40;;;21.47;;
9461;SDS011;4769;42.660;23.262;2024-03-02T02:46:35;26.43;;;20.53;;
9461;SDS011;4769;42.660;23.262;2024-03-02T02:49:07;28.97;;;20.70;;
9461;SDS011;4769;42.660;23.262;2024-03-02T02:51:32;31.13;;;20.57;;
9461;SDS011;4769;42.660;23.262;2024-03-02T02:57:05;29.33;;;20.57;;
9461;SDS011;4769;42.660;23.262;2024-03-02T02:59:42;25.63;;;19.27;;
9461;SDS011;4769;42.660;23.262;2024-03-02T03:02:07;26.13;;;20.13;;
9461;SDS011;4769;42.660;23.262;2024-03-02T03:04:48;26.57;;;20.60;;
9461;SDS011;4769;42.660;23.262;2024-03-02T03:07:16;30.57;;;22.17;;
9461;SDS011;4769;42.660;23.262;2024-03-02T03:10:05;30.40;;;22.13;;
9461;SDS011;4769;42.660;23.262;2024-03-02T03:16:08;35.77;;;24.67;;
9461;SDS011;4769;42.660;23.262;2024-03-02T03:18:59;37.90;;;25.53;;
9461;SDS011;4769;42.660;23.262;2024-03-02T03:21:24;35.77;;;25.23;;
9461;SDS011;4769;42.660;23.262;2024-03-02T03:24:14;37.87;;;26.80;;
9461;SDS011;4769;42.660;23.262;2024-03-02T03:26:40;38.67;;;25.80;;
9461;SDS011;4769;42.660;23.262;2024-03-02T03:29:08;37.33;;;26.37;;
9461;SDS011;4769;42.660;23.262;2024-03-02T03:31:34;39.50;;;26.93;;
9461;SDS011;4769;42.660;23.262;2024-03-02T03:34:02;37.83;;;26.43;;
9461;SDS011;4769;42.660;23.262;2024-03-02T03:36:30;37.33;;;26.73;;
9461;SDS011;4769;42.660;23.262;2024-03-02T03:39:00;39.43;;;27.33;;
9461;SDS011;4769;42.660;23.262;2024-03-02T03:41:28;40.37;;;26.43;;
9461;SDS011;4769;42.660;23.262;2024-03-02T03:44:02;34.90;;;24.83;;
9461;SDS011;4769;42.660;23.262;2024-03-02T03:46:51;39.97;;;26.80;;
9461;SDS011;4769;42.660;23.262;2024-03-02T03:49:17;38.43;;;27.27;;
9461;SDS011;4769;42.660;23.262;2024-03-02T03:54:34;39.27;;;27.97;;
9461;SDS011;4769;42.660;23.262;2024-03-02T03:57:09;41.33;;;28.43;;
9461;SDS011;4769;42.660;23.262;2024-03-02T03:59:38;38.47;;;27.07;;
9461;SDS011;4769;42.660;23.262;2024-03-02T04:02:09;43.73;;;27.63;;
9461;SDS011;4769;42.660;23.262;2024-03-02T04:04:43;39.03;;;27.23;;
9461;SDS011;4769;42.660;23.262;2024-03-02T04:07:19;40.43;;;28.40;;
9461;SDS011;4769;42.660;23.262;2024-03-02T04:09:47;41.23;;;27.30;;
9461;SDS011;4769;42.660;23.262;2024-03-02T04:12:13;43.60;;;29.93;;
9461;SDS011;4769;42.660;23.262;2024-03-02T04:14:38;43.07;;;28.90;;
9461;SDS011;4769;42.660;23.262;2024-03-02T04:17:03;39.83;;;28.70;;
9461;SDS011;4769;42.660;23.262;2024-03-02T04:19:29;39.33;;;28.97;;
9461;SDS011;4769;42.660;23.262;2024-03-02T04:21:54;42.10;;;28.40;;
9461;SDS011;4769;42.660;23.262;2024-03-02T04:24:20;41.60;;;29.13;;
9461;SDS011;4769;42.660;23.262;2024-03-02T04:26:45;49.03;;;30.83;;
9461;SDS011;4769;42.660;23.262;2024-03-02T04:29:11;44.00;;;29.83;;
9461;SDS011;4769;42.660;23.262;2024-03-02T04:31:36;43.43;;;30.70;;
9461;SDS011;4769;42.660;23.262;2024-03-02T04:34:01;45.33;;;29.57;;
9461;SDS011;4769;42.660;23.262;2024-03-02T04:36:27;45.27;;;29.60;;
9461;SDS011;4769;42.660;23.262;2024-03-02T04:38:52;42.43;;;29.27;;
9461;SDS011;4769;42.660;23.262;2024-03-02T04:41:17;38.60;;;28.40;;
9461;SDS011;4769;42.660;23.262;2024-03-02T04:43:43;42.23;;;29.53;;
9461;SDS011;4769;42.660;23.262;2024-03-02T04:46:08;44.87;;;29.90;;
9461;SDS011;4769;42.660;23.262;2024-03-02T04:48:34;47.13;;;29.87;;
9461;SDS011;4769;42.660;23.262;2024-03-02T04:51:01;41.57;;;29.03;;
9461;SDS011;4769;42.660;23.262;2024-03-02T04:53:27;42.60;;;28.83;;
9461;SDS011;4769;42.660;23.262;2024-03-02T04:55:52;41.33;;;29.80;;
9461;SDS011;4769;42.660;23.262;2024-03-02T04:58:20;41.40;;;29.57;;
9461;SDS011;4769;42.660;23.262;2024-03-02T05:00:48;43.00;;;29.70;;
9461;SDS011;4769;42.660;23.262;2024-03-02T05:03:17;44.13;;;29.27;;
9461;SDS011;4769;42.660;23.262;2024-03-02T05:06:03;40.93;;;29.07;;
9461;SDS011;4769;42.660;23.262;2024-03-02T05:08:37;40.77;;;27.80;;
9461;SDS011;4769;42.660;23.262;2024-03-02T05:11:03;40.47;;;28.70;;
9461;SDS011;4769;42.660;23.262;2024-03-02T05:13:57;43.33;;;28.57;;
9461;SDS011;4769;42.660;23.262;2024-03-02T05:16:23;41.73;;;29.80;;
9461;SDS011;4769;42.660;23.262;2024-03-02T05:18:54;44.10;;;28.67;;
9461;SDS011;4769;42.660;23.262;2024-03-02T05:21:20;45.43;;;28.77;;
9461;SDS011;4769;42.660;23.262;2024-03-02T05:23:46;64.87;;;36.43;;
9461;SDS011;4769;42.660;23.262;2024-03-02T05:26:11;60.60;;;36.07;;
9461;SDS011;4769;42.660;23.262;2024-03-02T05:28:42;47.10;;;31.33;;
9461;SDS011;4769;42.660;23.262;2024-03-02T05:31:10;47.30;;;30.43;;
9461;SDS011;4769;42.660;23.262;2024-03-02T05:33:37;46.13;;;31.83;;
9461;SDS011;4769;42.660;23.262;2024-03-02T05:36:06;41.93;;;29.27;;
9461;SDS011;4769;42.660;23.262;2024-03-02T05:38:38;40.27;;;29.03;;
9461;SDS011;4769;42.660;23.262;2024-03-02T05:41:06;47.87;;;29.27;;
9461;SDS011;4769;42.660;23.262;2024-03-02T05:43:34;42.97;;;30.10;;
9461;SDS011;4769;42.660;23.262;2024-03-02T05:46:01;44.77;;;30.57;;
9461;SDS011;4769;42.660;23.262;2024-03-02T05:48:29;47.00;;;30.83;;
9461;SDS011;4769;42.660;23.262;2024-03-02T05:50:57;46.33;;;31.17;;
9461;SDS011;4769;42.660;23.262;2024-03-02T05:53:23;42.23;;;30.33;;
9461;SDS011;4769;42.660;23.262;2024-03-02T05:55:48;37.83;;;28.03;;
9461;SDS011;4769;42.660;23.262;2024-03-02T05:58:18;39.33;;;27.97;;
9461;SDS011;4769;42.660;23.262;2024-03-02T06:01:22;39.07;;;28.07;;
9461;SDS011;4769;42.660;23.262;2024-03-02T06:03:56;42.00;;;29.33;;
9461;SDS011;4769;42.660;23.262;2024-03-02T06:06:25;39.70;;;28.57;;
9461;SDS011;4769;42.660;23.262;2024-03-02T06:08:51;42.83;;;29.13;;
9461;SDS011;4769;42.660;23.262;2024-03-02T06:11:17;41.57;;;28.27;;
9461;SDS011;4769;42.660;23.262;2024-03-02T06:13:44;43.10;;;30.97;;
9461;SDS011;4769;42.660;23.262;2024-03-02T06:16:09;40.03;;;28.63;;
9461;SDS011;4769;42.660;23.262;2024-03-02T06:18:35;41.50;;;29.60;;
9461;SDS011;4769;42.660;23.262;2024-03-02T06:21:00;39.83;;;29.73;;
9461;SDS011;4769;42.660;23.262;2024-03-02T06:23:26;41.17;;;29.27;;
9461;SDS011;4769;42.660;23.262;2024-03-02T06:25:52;40.00;;;29.20;;
9461;SDS011;4769;42.660;23.262;2024-03-02T06:28:17;41.30;;;30.50;;
9461;SDS011;4769;42.660;23.262;2024-03-02T06:30:43;41.07;;;29.20;;
9461;SDS011;4769;42.660;23.262;2024-03-02T06:33:09;42.30;;;29.23;;
9461;SDS011;4769;42.660;23.262;2024-03-02T06:35:34;43.30;;;32.00;;
9461;SDS011;4769;42.660;23.262;2024-03-02T06:38:00;44.20;;;30.60;;
9461;SDS011;4769;42.660;23.262;2024-03-02T06:40:26;43.23;;;29.67;;
9461;SDS011;4769;42.660;23.262;2024-03-02T06:42:51;42.17;;;30.60;;
9461;SDS011;4769;42.660;23.262;2024-03-02T06:45:17;46.43;;;31.70;;
9461;SDS011;4769;42.660;23.262;2024-03-02T06:47:42;46.10;;;31.53;;
9461;SDS011;4769;42.660;23.262;2024-03-02T06:50:08;46.07;;;30.73;;
9461;SDS011;4769;42.660;23.262;2024-03-02T06:52:34;45.53;;;32.03;;
9461;SDS011;4769;42.660;23.262;2024-03-02T06:55:00;45.07;;;31.27;;
9461;SDS011;4769;42.660;23.262;2024-03-02T06:57:25;42.10;;;28.90;;
9461;SDS011;4769;42.660;23.262;2024-03-02T06:59:50;35.73;;;26.53;;
9461;SDS011;4769;42.660;23.262;2024-03-02T07:02:16;36.67;;;27.40;;
9461;SDS011;4769;42.660;23.262;2024-03-02T07:04:42;37.17;;;26.93;;
9461;SDS011;4769;42.660;23.262;2024-03-02T07:07:07;32.07;;;22.60;;
9461;SDS011;4769;42.660;23.262;2024-03-02T07:09:33;33.80;;;23.00;;
9461;SDS011;4769;42.660;23.262;2024-03-02T07:11:58;30.33;;;21.00;;
9461;SDS011;4769;42.660;23.262;2024-03-02T07:14:23;28.53;;;20.30;;
9461;SDS011;4769;42.660;23.262;2024-03-02T07:17:11;29.17;;;19.97;;
9461;SDS011;4769;42.660;23.262;2024-03-02T07:19:37;33.93;;;21.77;;
9461;SDS011;4769;42.660;23.262;2024-03-02T07:22:05;32.63;;;21.93;;
9461;SDS011;4769;42.660;23.262;2024-03-02T07:24:32;31.10;;;21.93;;
9461;SDS011;4769;42.660;23.262;2024-03-02T07:26:58;29.17;;;21.50;;
9461;SDS011;4769;42.660;23.262;2024-03-02T07:29:23;28.97;;;19.87;;
9461;SDS011;4769;42.660;23.262;2024-03-02T07:31:49;27.20;;;20.03;;
9461;SDS011;4769;42.660;23.262;2024-03-02T07:34:14;31.10;;;21.13;;
9461;SDS011;4769;42.660;23.262;2024-03-02T07:36:40;30.30;;;21.00;;
9461;SDS011;4769;42.660;23.262;2024-03-02T07:39:05;26.53;;;18.73;;
9461;SDS011;4769;42.660;23.262;2024-03-02T07:41:32;25.65;;;19.13;;
9461;SDS011;4769;42.660;23.262;2024-03-02T07:43:57;26.53;;;19.50;;
9461;SDS011;4769;42.660;23.262;2024-03-02T07:46:23;27.50;;;19.93;;
9461;SDS011;4769;42.660;23.262;2024-03-02T07:48:49;28.40;;;19.15;;
9461;SDS011;4769;42.660;23.262;2024-03-02T07:51:16;25.35;;;19.73;;
9461;SDS011;4769;42.660;23.262;2024-03-02T07:53:42;25.58;;;18.77;;
9461;SDS011;4769;42.660;23.262;2024-03-02T07:56:07;25.73;;;18.65;;
9461;SDS011;4769;42.660;23.262;2024-03-02T07:58:33;27.10;;;19.58;;
9461;SDS011;4769;42.660;23.262;2024-03-02T08:01:00;32.20;;;21.00;;
9461;SDS011;4769;42.660;23.262;2024-03-02T08:03:28;27.48;;;20.52;;
9461;SDS011;4769;42.660;23.262;2024-03-02T08:05:54;29.23;;;20.63;;
9461;SDS011;4769;42.660;23.262;2024-03-02T08:08:19;26.65;;;18.38;;
9461;SDS011;4769;42.660;23.262;2024-03-02T08:10:45;28.17;;;19.13;;
9461;SDS011;4769;42.660;23.262;2024-03-02T08:13:10;25.30;;;19.10;;
9461;SDS011;4769;42.660;23.262;2024-03-02T08:15:35;25.38;;;19.33;;
9461;SDS011;4769;42.660;23.262;2024-03-02T08:18:01;26.75;;;19.38;;
9461;SDS011;4769;42.660;23.262;2024-03-02T08:20:26;27.15;;;19.42;;
9461;SDS011;4769;42.660;23.262;2024-03-02T08:22:58;29.70;;;21.90;;
9461;SDS011;4769;42.660;23.262;2024-03-02T08:25:24;32.42;;;22.30;;
9461;SDS011;4769;42.660;23.262;2024-03-02T08:27:49;27.25;;;20.70;;
9461;SDS011;4769;42.660;23.262;2024-03-02T08:30:18;28.58;;;20.48;;
9461;SDS011;4769;42.660;23.262;2024-03-02T08:32:43;28.95;;;22.55;;
9461;SDS011;4769;42.660;23.262;2024-03-02T08:35:10;29.95;;;20.90;;
9461;SDS011;4769;42.660;23.262;2024-03-02T08:37:36;32.45;;;21.83;;
9461;SDS011;4769;42.660;23.262;2024-03-02T08:40:04;31.30;;;21.35;;
9461;SDS011;4769;42.660;23.262;2024-03-02T08:42:32;32.25;;;21.23;;
9461;SDS011;4769;42.660;23.262;2024-03-02T08:44:58;27.48;;;19.90;;
9461;SDS011;4769;42.660;23.262;2024-03-02T08:47:25;25.83;;;20.23;;
9461;SDS011;4769;42.660;23.262;2024-03-02T08:49:53;25.27;;;19.75;;
9461;SDS011;4769;42.660;23.262;2024-03-02T08:52:19;27.27;;;19.88;;
9461;SDS011;4769;42.660;23.262;2024-03-02T08:54:44;29.05;;;20.35;;
9461;SDS011;4769;42.660;23.262;2024-03-02T08:57:10;32.22;;;20.38;;
9461;SDS011;4769;42.660;23.262;2024-03-02T08:59:35;31.70;;;22.17;;
9461;SDS011;4769;42.660;23.262;2024-03-02T09:02:01;32.50;;;22.98;;
9461;SDS011;4769;42.660;23.262;2024-03-02T09:04:27;32.72;;;23.27;;
9461;SDS011;4769;42.660;23.262;2024-03-02T09:06:53;29.13;;;21.98;;
9461;SDS011;4769;42.660;23.262;2024-03-02T09:09:18;32.78;;;23.00;;
9461;SDS011;4769;42.660;23.262;2024-03-02T09:11:45;28.60;;;20.38;;
9461;SDS011;4769;42.660;23.262;2024-03-02T09:14:11;30.85;;;21.77;;
9461;SDS011;4769;42.660;23.262;2024-03-02T09:19:12;27.50;;;18.50;;
9461;SDS011;4769;42.660;23.262;2024-03-02T09:21:38;33.10;;;20.75;;
9461;SDS011;4769;42.660;23.262;2024-03-02T09:24:03;30.15;;;21.23;;
9461;SDS011;4769;42.660;23.262;2024-03-02T09:26:29;27.83;;;19.52;;
9461;SDS011;4769;42.660;23.262;2024-03-02T09:28:55;27.30;;;19.23;;
9461;SDS011;4769;42.660;23.262;2024-03-02T09:31:20;28.45;;;22.02;;
9461;SDS011;4769;42.660;23.262;2024-03-02T09:33:46;27.38;;;20.45;;
9461;SDS011;4769;42.660;23.262;2024-03-02T09:36:18;25.80;;;18.98;;
9461;SDS011;4769;42.660;23.262;2024-03-02T09:38:44;25.42;;;19.60;;
9461;SDS011;4769;42.660;23.262;2024-03-02T09:41:24;25.30;;;18.27;;
9461;SDS011;4769;42.660;23.262;2024-03-02T09:43:56;24.30;;;18.08;;
9461;SDS011;4769;42.660;23.262;2024-03-02T09:46:22;26.00;;;18.90;;
9461;SDS011;4769;42.660;23.262;2024-03-02T09:48:51;25.23;;;18.98;;
9461;SDS011;4769;42.660;23.262;2024-03-02T09:51:16;26.52;;;19.73;;
9461;SDS011;4769;42.660;23.262;2024-03-02T09:53:44;26.40;;;18.65;;
9461;SDS011;4769;42.660;23.262;2024-03-02T09:56:15;27.95;;;20.23;;
9461;SDS011;4769;42.660;23.262;2024-03-02T09:58:41;26.63;;;19.95;;
9461;SDS011;4769;42.660;23.262;2024-03-02T10:01:09;25.13;;;18.13;;
9461;SDS011;4769;42.660;23.262;2024-03-02T10:03:36;23.48;;;18.38;;
9461;SDS011;4769;42.660;23.262;2024-03-02T10:08:57;24.95;;;18.38;;
9461;SDS011;4769;42.660;23.262;2024-03-02T10:14:04;25.27;;;20.85;;
9461;SDS011;4769;42.660;23.262;2024-03-02T10:19:58;27.10;;;20.80;;
9461;SDS011;4769;42.660;23.262;2024-03-02T10:22:44;29.55;;;20.38;;
9461;SDS011;4769;42.660;23.262;2024-03-02T10:25:11;27.48;;;20.13;;
9461;SDS011;4769;42.660;23.262;2024-03-02T10:27:53;27.80;;;20.27;;
9461;SDS011;4769;42.660;23.262;2024-03-02T10:30:22;27.67;;;21.02;;
9461;SDS011;4769;42.660;23.262;2024-03-02T10:32:49;30.83;;;21.83;;
9461;SDS011;4769;42.660;23.262;2024-03-02T10:35:15;30.42;;;22.10;;
9461;SDS011;4769;42.660;23.262;2024-03-02T10:37:47;29.67;;;20.90;;
9461;SDS011;4769;42.660;23.262;2024-03-02T10:40:14;30.90;;;21.80;;
9461;SDS011;4769;42.660;23.262;2024-03-02T10:42:41;27.92;;;21.50;;
9461;SDS011;4769;42.660;23.262;2024-03-02T10:45:17;27.73;;;20.60;;
9461;SDS011;4769;42.660;23.262;2024-03-02T10:47:45;33.20;;;23.88;;
9461;SDS011;4769;42.660;23.262;2024-03-02T10:50:14;33.20;;;23.88;;
9461;SDS011;4769;42.660;23.262;2024-03-02T10:52:43;32.42;;;24.85;;
9461;SDS011;4769;42.660;23.262;2024-03-02T10:55:09;38.13;;;26.95;;
9461;SDS011;4769;42.660;23.262;2024-03-02T10:57:41;37.95;;;27.30;;
9461;SDS011;4769;42.660;23.262;2024-03-02T11:00:15;39.35;;;29.00;;
9461;SDS011;4769;42.660;23.262;2024-03-02T11:02:50;46.25;;;31.80;;
9461;SDS011;4769;42.660;23.262;2024-03-02T11:05:36;47.60;;;33.10;;
9461;SDS011;4769;42.660;23.262;2024-03-02T11:08:07;44.90;;;33.25;;
9461;SDS011;4769;42.660;23.262;2024-03-02T11:10:52;49.97;;;32.28;;
9461;SDS011;4769;42.660;23.262;2024-03-02T11:13:42;46.03;;;32.45;;
9461;SDS011;4769;42.660;23.262;2024-03-02T11:16:36;50.25;;;33.80;;
9461;SDS011;4769;42.660;23.262;2024-03-02T11:19:13;48.55;;;33.53;;
9461;SDS011;4769;42.660;23.262;2024-03-02T11:21:56;44.67;;;31.80;;
9461;SDS011;4769;42.660;23.262;2024-03-02T11:24:47;46.28;;;31.48;;
9461;SDS011;4769;42.660;23.262;2024-03-02T11:33:03;40.08;;;29.30;;
9461;SDS011;4769;42.660;23.262;2024-03-02T11:35:36;42.20;;;28.38;;
9461;SDS011;4769;42.660;23.262;2024-03-02T11:38:03;39.42;;;29.05;;
9461;SDS011;4769;42.660;23.262;2024-03-02T11:40:29;43.92;;;29.30;;
9461;SDS011;4769;42.660;23.262;2024-03-02T11:43:04;40.58;;;29.60;;
9461;SDS011;4769;42.660;23.262;2024-03-02T11:45:30;40.63;;;27.98;;
9461;SDS011;4769;42.660;23.262;2024-03-02T11:48:00;39.03;;;26.63;;
9461;SDS011;4769;42.660;23.262;2024-03-02T11:53:05;34.85;;;26.92;;
9461;SDS011;4769;42.660;23.262;2024-03-02T11:55:32;36.63;;;26.40;;
9461;SDS011;4769;42.660;23.262;2024-03-02T11:58:03;35.55;;;25.77;;
9461;SDS011;4769;42.660;23.262;2024-03-02T12:00:29;35.65;;;25.45;;
9461;SDS011;4769;42.660;23.262;2024-03-02T12:03:00;35.80;;;26.15;;
9461;SDS011;4769;42.660;23.262;2024-03-02T12:05:26;35.78;;;24.83;;
9461;SDS011;4769;42.660;23.262;2024-03-02T12:08:01;35.95;;;25.63;;
9461;SDS011;4769;42.660;23.262;2024-03-02T12:10:33;33.53;;;24.85;;
9461;SDS011;4769;42.660;23.262;2024-03-02T12:13:03;33.35;;;25.77;;
9461;SDS011;4769;42.660;23.262;2024-03-02T12:15:32;33.65;;;25.08;;
9461;SDS011;4769;42.660;23.262;2024-03-02T12:18:04;32.45;;;24.17;;
9461;SDS011;4769;42.660;23.262;2024-03-02T12:20:31;35.25;;;26.17;;
9461;SDS011;4769;42.660;23.262;2024-03-02T12:22:58;33.00;;;24.33;;
9461;SDS011;4769;42.660;23.262;2024-03-02T12:25:24;36.47;;;24.23;;
9461;SDS011;4769;42.660;23.262;2024-03-02T12:27:54;35.08;;;25.33;;
9461;SDS011;4769;42.660;23.262;2024-03-02T12:30:21;35.78;;;24.40;;
9461;SDS011;4769;42.660;23.262;2024-03-02T12:32:47;31.42;;;23.77;;
9461;SDS011;4769;42.660;23.262;2024-03-02T12:35:13;33.55;;;25.50;;
9461;SDS011;4769;42.660;23.262;2024-03-02T12:37:45;33.83;;;24.88;;
9461;SDS011;4769;42.660;23.262;2024-03-02T12:40:15;36.10;;;30.20;;
9461;SDS011;4769;42.660;23.262;2024-03-02T12:42:43;53.72;;;42.83;;
9461;SDS011;4769;42.660;23.262;2024-03-02T12:45:09;37.65;;;30.48;;
9461;SDS011;4769;42.660;23.262;2024-03-02T12:47:36;36.42;;;25.30;;
9461;SDS011;4769;42.660;23.262;2024-03-02T12:50:06;31.63;;;25.35;;
9461;SDS011;4769;42.660;23.262;2024-03-02T12:52:32;33.92;;;25.95;;
9461;SDS011;4769;42.660;23.262;2024-03-02T12:54:59;33.05;;;25.33;;
9461;SDS011;4769;42.660;23.262;2024-03-02T12:57:28;37.00;;;24.55;;
9461;SDS011;4769;42.660;23.262;2024-03-02T12:59:58;34.17;;;24.90;;
9461;SDS011;4769;42.660;23.262;2024-03-02T13:02:27;32.75;;;24.23;;
9461;SDS011;4769;42.660;23.262;2024-03-02T13:04:54;32.40;;;24.95;;
9461;SDS011;4769;42.660;23.262;2024-03-02T13:07:20;33.45;;;26.33;;
9461;SDS011;4769;42.660;23.262;2024-03-02T13:09:47;33.83;;;25.77;;
9461;SDS011;4769;42.660;23.262;2024-03-02T13:12:17;32.70;;;26.00;;
9461;SDS011;4769;42.660;23.262;2024-03-02T13:14:44;35.67;;;25.83;;
9461;SDS011;4769;42.660;23.262;2024-03-02T13:17:09;39.42;;;26.80;;
9461;SDS011;4769;42.660;23.262;2024-03-02T13:19:35;32.08;;;25.33;;
9461;SDS011;4769;42.660;23.262;2024-03-02T13:22:02;35.25;;;27.52;;
9461;SDS011;4769;42.660;23.262;2024-03-02T13:24:29;37.10;;;29.00;;
9461;SDS011;4769;42.660;23.262;2024-03-02T13:26:55;39.30;;;27.20;;
9461;SDS011;4769;42.660;23.262;2024-03-02T13:29:22;33.55;;;26.25;;
9461;SDS011;4769;42.660;23.262;2024-03-02T13:31:49;34.53;;;26.13;;
9461;SDS011;4769;42.660;23.262;2024-03-02T13:34:14;32.15;;;25.92;;
9461;SDS011;4769;42.660;23.262;2024-03-02T13:36:40;32.15;;;24.20;;
9461;SDS011;4769;42.660;23.262;2024-03-02T13:39:06;31.77;;;25.70;;
9461;SDS011;4769;42.660;23.262;2024-03-02T13:41:34;36.35;;;27.10;;
9461;SDS011;4769;42.660;23.262;2024-03-02T13:43:59;34.13;;;26.85;;
9461;SDS011;4769;42.660;23.262;2024-03-02T13:46:26;32.47;;;26.02;;
9461;SDS011;4769;42.660;23.262;2024-03-02T13:48:52;34.47;;;26.73;;
9461;SDS011;4769;42.660;23.262;2024-03-02T13:51:18;34.95;;;26.40;;
9461;SDS011;4769;42.660;23.262;2024-03-02T13:53:43;35.63;;;25.85;;
9461;SDS011;4769;42.660;23.262;2024-03-02T13:56:08;33.00;;;25.42;;
9461;SDS011;4769;42.660;23.262;2024-03-02T13:58:34;32.22;;;25.52;;
9461;SDS011;4769;42.660;23.262;2024-03-02T14:01:00;34.15;;;26.02;;
9461;SDS011;4769;42.660;23.262;2024-03-02T14:03:26;33.05;;;25.95;;
9461;SDS011;4769;42.660;23.262;2024-03-02T14:05:52;33.95;;;26.08;;
9461;SDS011;4769;42.660;23.262;2024-03-02T14:08:18;33.60;;;24.92;;
9461;SDS011;4769;42.660;23.262;2024-03-02T14:10:43;32.72;;;24.95;;
9461;SDS011;4769;42.660;23.262;2024-03-02T14:13:09;34.67;;;25.95;;
9461;SDS011;4769;42.660;23.262;2024-03-02T14:15:34;36.33;;;25.38;;
9461;SDS011;4769;42.660;23.262;2024-03-02T14:18:03;31.70;;;24.88;;
9461;SDS011;4769;42.660;23.262;2024-03-02T14:20:29;35.35;;;25.98;;
9461;SDS011;4769;42.660;23.262;2024-03-02T14:22:55;36.50;;;25.95;;
9461;SDS011;4769;42.660;23.262;2024-03-02T14:25:20;32.53;;;27.05;;
9461;SDS011;4769;42.660;23.262;2024-03-02T14:27:45;33.05;;;26.35;;
9461;SDS011;4769;42.660;23.262;2024-03-02T14:30:12;34.15;;;26.85;;
9461;SDS011;4769;42.660;23.262;2024-03-02T14:32:37;31.10;;;25.38;;
9461;SDS011;4769;42.660;23.262;2024-03-02T14:35:03;33.25;;;26.27;;
9461;SDS011;4769;42.660;23.262;2024-03-02T14:37:29;34.55;;;25.88;;
9461;SDS011;4769;42.660;23.262;2024-03-02T14:39:54;32.47;;;24.92;;
9461;SDS011;4769;42.660;23.262;2024-03-02T14:42:20;32.45;;;25.33;;
9461;SDS011;4769;42.660;23.262;2024-03-02T14:44:46;31.40;;;25.17;;
9461;SDS011;4769;42.660;23.262;2024-03-02T14:47:11;30.63;;;24.83;;
9461;SDS011;4769;42.660;23.262;2024-03-02T14:49:37;33.25;;;25.33;;
9461;SDS011;4769;42.660;23.262;2024-03-02T14:52:05;32.55;;;26.98;;
9461;SDS011;4769;42.660;23.262;2024-03-02T14:54:31;32.67;;;25.50;;
9461;SDS011;4769;42.660;23.262;2024-03-02T14:56:56;33.45;;;26.73;;
9461;SDS011;4769;42.660;23.262;2024-03-02T14:59:22;36.03;;;27.33;;
9461;SDS011;4769;42.660;23.262;2024-03-02T15:01:47;37.20;;;26.98;;
9461;SDS011;4769;42.660;23.262;2024-03-02T15:04:13;32.05;;;26.98;;
9461;SDS011;4769;42.660;23.262;2024-03-02T15:06:41;33.53;;;26.10;;
9461;SDS011;4769;42.660;23.262;2024-03-02T15:09:07;30.85;;;26.20;;
9461;SDS011;4769;42.660;23.262;2024-03-02T15:11:33;33.35;;;25.85;;
9461;SDS011;4769;42.660;23.262;2024-03-02T15:13:58;29.45;;;25.85;;
9461;SDS011;4769;42.660;23.262;2024-03-02T15:16:24;34.47;;;26.98;;
9461;SDS011;4769;42.660;23.262;2024-03-02T15:18:49;33.58;;;26.55;;
9461;SDS011;4769;42.660;23.262;2024-03-02T15:21:18;33.03;;;28.00;;
9461;SDS011;4769;42.660;23.262;2024-03-02T15:23:44;42.90;;;29.65;;
9461;SDS011;4769;42.660;23.262;2024-03-02T15:26:09;35.90;;;29.08;;
9461;SDS011;4769;42.660;23.262;2024-03-02T15:28:39;35.88;;;29.15;;